sensor_id;sensor_type;location;lat;lon;timestamp;P1;durP1;ratioP1;P2;durP2;ratioP2
7983;SDS011;4037;47.980;10.172;2023-05-29T00:00:07;9.63;;;5.57;;
7983;SDS011;4037;47.980;10.172;2023-05-29T00:02:34;8.27;;;5.50;;
7983;SDS011;4037;47.980;10.172;2023-05-29T00:05:00;7.83;;;5.73;;
7983;SDS011;4037;47.980;10.172;2023-05-29T00:07:30;7.23;;;5.00;;
7983;SDS011;4037;47.980;10.172;2023-05-29T00:09:57;7.50;;;5.07;;
7983;SDS011;4037;47.980;10.172;2023-05-29T00:12:23;8.47;;;5.43;;
7983;SDS011;4037;47.980;10.172;2023-05-29T00:14:50;10.33;;;5.47;;
7983;SDS011;4037;47.980;10.172;2023-05-29T00:17:16;8.90;;;6.10;;
7983;SDS011;4037;47.980;10.172;2023-05-29T00:19:42;9.87;;;5.60;;
7983;SDS011;4037;47.980;10.172;2023-05-29T00:22:08;8.37;;;5.80;;
7983;SDS011;4037;47.980;10.172;2023-05-29T00:24:35;6.17;;;5.03;;
7983;SDS011;4037;47.980;10.172;2023-05-29T00:27:01;10.67;;;5.30;;
7983;SDS011;4037;47.980;10.172;2023-05-29T00:29:27;7.87;;;5.50;;
7983;SDS011;4037;47.980;10.172;2023-05-29T00:31:53;7.43;;;5.00;;
7983;SDS011;4037;47.980;10.172;2023-05-29T00:34:19;7.77;;;5.40;;
7983;SDS011;4037;47.980;10.172;2023-05-29T00:36:47;7.77;;;5.33;;
7983;SDS011;4037;47.980;10.172;2023-05-29T00:39:13;11.70;;;6.50;;
7983;SDS011;4037;47.980;10.172;2023-05-29T00:41:39;7.33;;;5.43;;
7983;SDS011;4037;47.980;10.172;2023-05-29T00:44:05;8.13;;;5.27;;
7983;SDS011;4037;47.980;10.172;2023-05-29T00:46:31;11.83;;;6.00;;
7983;SDS011;4037;47.980;10.172;2023-05-29T00:48:58;9.00;;;5.90;;
7983;SDS011;4037;47.980;10.172;2023-05-29T00:51:24;6.47;;;4.93;;
7983;SDS011;4037;47.980;10.172;2023-05-29T00:53:50;7.10;;;4.77;;
7983;SDS011;4037;47.980;10.172;2023-05-29T00:56:18;5.50;;;5.00;;
7983;SDS011;4037;47.980;10.172;2023-05-29T00:58:46;7.83;;;5.80;;
7983;SDS011;4037;47.980;10.172;2023-05-29T01:01:13;7.07;;;5.00;;
7983;SDS011;4037;47.980;10.172;2023-05-29T01:03:40;7.67;;;5.67;;
7983;SDS011;4037;47.980;10.172;2023-05-29T01:06:07;6.90;;;5.40;;
7983;SDS011;4037;47.980;10.172;2023-05-29T01:08:33;9.07;;;5.43;;
7983;SDS011;4037;47.980;10.172;2023-05-29T01:11:12;8.13;;;5.93;;
7983;SDS011;4037;47.980;10.172;2023-05-29T01:13:45;8.87;;;5.60;;
7983;SDS011;4037;47.980;10.172;2023-05-29T01:16:12;7.83;;;5.73;;
7983;SDS011;4037;47.980;10.172;2023-05-29T01:26:48;8.30;;;5.43;;
7983;SDS011;4037;47.980;10.172;2023-05-29T01:29:21;10.03;;;5.70;;
7983;SDS011;4037;47.980;10.172;2023-05-29T01:31:48;8.43;;;5.23;;
7983;SDS011;4037;47.980;10.172;2023-05-29T01:34:15;8.43;;;6.20;;
7983;SDS011;4037;47.980;10.172;2023-05-29T01:36:41;8.00;;;5.30;;
7983;SDS011;4037;47.980;10.172;2023-05-29T01:39:07;8.03;;;5.40;;
7983;SDS011;4037;47.980;10.172;2023-05-29T01:41:34;7.07;;;5.07;;
7983;SDS011;4037;47.980;10.172;2023-05-29T01:44:04;6.47;;;5.17;;
7983;SDS011;4037;47.980;10.172;2023-05-29T01:46:33;11.90;;;6.13;;
7983;SDS011;4037;47.980;10.172;2023-05-29T01:49:00;6.40;;;5.07;;
7983;SDS011;4037;47.980;10.172;2023-05-29T01:51:27;7.10;;;5.63;;
7983;SDS011;4037;47.980;10.172;2023-05-29T01:53:53;7.30;;;4.80;;
7983;SDS011;4037;47.980;10.172;2023-05-29T01:56:19;8.10;;;6.33;;
7983;SDS011;4037;47.980;10.172;2023-05-29T01:58:46;6.97;;;4.63;;
7983;SDS011;4037;47.980;10.172;2023-05-29T02:01:12;7.30;;;5.53;;
7983;SDS011;4037;47.980;10.172;2023-05-29T02:03:38;9.23;;;5.60;;
7983;SDS011;4037;47.980;10.172;2023-05-29T02:06:04;10.70;;;5.97;;
7983;SDS011;4037;47.980;10.172;2023-05-29T02:08:31;6.27;;;5.17;;
7983;SDS011;4037;47.980;10.172;2023-05-29T02:10:57;6.73;;;4.57;;
7983;SDS011;4037;47.980;10.172;2023-05-29T02:13:23;6.63;;;4.87;;
7983;SDS011;4037;47.980;10.172;2023-05-29T02:15:49;8.17;;;5.17;;
7983;SDS011;4037;47.980;10.172;2023-05-29T02:18:16;10.23;;;5.57;;
7983;SDS011;4037;47.980;10.172;2023-05-29T02:20:42;8.37;;;5.20;;
7983;SDS011;4037;47.980;10.172;2023-05-29T02:23:08;6.83;;;5.10;;
7983;SDS011;4037;47.980;10.172;2023-05-29T02:25:34;6.03;;;5.23;;
7983;SDS011;4037;47.980;10.172;2023-05-29T02:28:01;6.83;;;4.87;;
7983;SDS011;4037;47.980;10.172;2023-05-29T02:30:27;9.10;;;5.70;;
7983;SDS011;4037;47.980;10.172;2023-05-29T02:32:53;6.27;;;5.33;;
7983;SDS011;4037;47.980;10.172;2023-05-29T02:35:20;10.47;;;5.17;;
7983;SDS011;4037;47.980;10.172;2023-05-29T02:37:48;7.53;;;5.50;;
7983;SDS011;4037;47.980;10.172;2023-05-29T02:40:14;8.63;;;5.20;;
7983;SDS011;4037;47.980;10.172;2023-05-29T02:42:40;8.80;;;5.73;;
7983;SDS011;4037;47.980;10.172;2023-05-29T02:45:06;7.97;;;5.47;;
7983;SDS011;4037;47.980;10.172;2023-05-29T02:47:32;7.17;;;4.87;;
7983;SDS011;4037;47.980;10.172;2023-05-29T02:49:58;6.53;;;5.17;;
7983;SDS011;4037;47.980;10.172;2023-05-29T02:52:24;8.77;;;5.07;;
7983;SDS011;4037;47.980;10.172;2023-05-29T02:54:50;10.10;;;5.70;;
7983;SDS011;4037;47.980;10.172;2023-05-29T02:57:16;7.20;;;4.67;;
7983;SDS011;4037;47.980;10.172;2023-05-29T02:59:42;5.60;;;4.67;;
7983;SDS011;4037;47.980;10.172;2023-05-29T03:02:09;7.90;;;5.40;;
7983;SDS011;4037;47.980;10.172;2023-05-29T03:04:35;9.13;;;5.40;;
7983;SDS011;4037;47.980;10.172;2023-05-29T03:07:01;5.87;;;5.03;;
7983;SDS011;4037;47.980;10.172;2023-05-29T03:09:27;8.57;;;5.07;;
7983;SDS011;4037;47.980;10.172;2023-05-29T03:11:53;8.10;;;5.50;;
7983;SDS011;4037;47.980;10.172;2023-05-29T03:14:19;8.10;;;5.57;;
7983;SDS011;4037;47.980;10.172;2023-05-29T03:16:46;7.13;;;5.90;;
7983;SDS011;4037;47.980;10.172;2023-05-29T03:19:12;7.93;;;5.53;;
7983;SDS011;4037;47.980;10.172;2023-05-29T03:21:38;10.10;;;5.17;;
7983;SDS011;4037;47.980;10.172;2023-05-29T03:24:05;7.27;;;5.20;;
7983;SDS011;4037;47.980;10.172;2023-05-29T03:26:31;9.00;;;5.77;;
7983;SDS011;4037;47.980;10.172;2023-05-29T03:28:57;8.03;;;5.50;;
7983;SDS011;4037;47.980;10.172;2023-05-29T03:31:23;8.73;;;5.73;;
7983;SDS011;4037;47.980;10.172;2023-05-29T03:33:49;5.93;;;4.93;;
7983;SDS011;4037;47.980;10.172;2023-05-29T03:36:15;8.77;;;5.73;;
7983;SDS011;4037;47.980;10.172;2023-05-29T03:38:44;10.50;;;5.77;;
7983;SDS011;4037;47.980;10.172;2023-05-29T03:41:10;7.70;;;5.93;;
7983;SDS011;4037;47.980;10.172;2023-05-29T03:43:37;8.07;;;5.70;;
7983;SDS011;4037;47.980;10.172;2023-05-29T03:46:03;9.50;;;5.70;;
7983;SDS011;4037;47.980;10.172;2023-05-29T03:48:29;6.73;;;5.00;;
7983;SDS011;4037;47.980;10.172;2023-05-29T03:50:55;7.73;;;5.50;;
7983;SDS011;4037;47.980;10.172;2023-05-29T03:53:21;7.80;;;5.53;;
7983;SDS011;4037;47.980;10.172;2023-05-29T03:55:47;7.77;;;5.37;;
7983;SDS011;4037;47.980;10.172;2023-05-29T03:58:13;7.83;;;5.47;;
7983;SDS011;4037;47.980;10.172;2023-05-29T04:00:40;9.10;;;5.20;;
7983;SDS011;4037;47.980;10.172;2023-05-29T04:03:06;8.30;;;5.67;;
7983;SDS011;4037;47.980;10.172;2023-05-29T04:05:32;5.83;;;4.97;;
7983;SDS011;4037;47.980;10.172;2023-05-29T04:07:58;8.17;;;5.40;;
7983;SDS011;4037;47.980;10.172;2023-05-29T04:10:25;7.10;;;5.00;;
7983;SDS011;4037;47.980;10.172;2023-05-29T04:12:51;7.07;;;5.37;;
7983;SDS011;4037;47.980;10.172;2023-05-29T04:15:17;8.07;;;5.27;;
7983;SDS011;4037;47.980;10.172;2023-05-29T04:17:43;9.87;;;5.67;;
7983;SDS011;4037;47.980;10.172;2023-05-29T04:20:09;8.10;;;4.70;;
7983;SDS011;4037;47.980;10.172;2023-05-29T04:22:36;7.10;;;5.20;;
7983;SDS011;4037;47.980;10.172;2023-05-29T04:25:02;6.80;;;4.73;;
7983;SDS011;4037;47.980;10.172;2023-05-29T04:27:29;8.97;;;5.37;;
7983;SDS011;4037;47.980;10.172;2023-05-29T04:29:56;9.10;;;4.83;;
7983;SDS011;4037;47.980;10.172;2023-05-29T04:32:22;8.43;;;5.90;;
7983;SDS011;4037;47.980;10.172;2023-05-29T04:34:48;10.60;;;5.83;;
7983;SDS011;4037;47.980;10.172;2023-05-29T04:37:16;8.07;;;5.60;;
7983;SDS011;4037;47.980;10.172;2023-05-29T04:39:42;8.03;;;5.10;;
7983;SDS011;4037;47.980;10.172;2023-05-29T04:42:08;9.20;;;5.47;;
7983;SDS011;4037;47.980;10.172;2023-05-29T04:44:34;10.50;;;6.07;;
7983;SDS011;4037;47.980;10.172;2023-05-29T04:47:00;8.60;;;6.00;;
7983;SDS011;4037;47.980;10.172;2023-05-29T04:49:29;8.37;;;5.53;;
7983;SDS011;4037;47.980;10.172;2023-05-29T04:51:55;9.77;;;5.37;;
7983;SDS011;4037;47.980;10.172;2023-05-29T04:54:25;6.43;;;4.43;;
7983;SDS011;4037;47.980;10.172;2023-05-29T04:56:51;8.87;;;5.00;;
7983;SDS011;4037;47.980;10.172;2023-05-29T04:59:17;7.43;;;5.10;;
7983;SDS011;4037;47.980;10.172;2023-05-29T05:01:43;8.40;;;5.20;;
7983;SDS011;4037;47.980;10.172;2023-05-29T05:04:09;8.30;;;5.57;;
7983;SDS011;4037;47.980;10.172;2023-05-29T05:06:35;6.60;;;5.00;;
7983;SDS011;4037;47.980;10.172;2023-05-29T05:09:02;9.23;;;5.47;;
7983;SDS011;4037;47.980;10.172;2023-05-29T05:11:28;9.97;;;5.57;;
7983;SDS011;4037;47.980;10.172;2023-05-29T05:13:54;6.90;;;5.13;;
7983;SDS011;4037;47.980;10.172;2023-05-29T05:16:20;6.60;;;5.30;;
7983;SDS011;4037;47.980;10.172;2023-05-29T05:18:46;9.90;;;5.63;;
7983;SDS011;4037;47.980;10.172;2023-05-29T05:21:12;6.27;;;4.90;;
7983;SDS011;4037;47.980;10.172;2023-05-29T05:23:38;7.87;;;5.50;;
7983;SDS011;4037;47.980;10.172;2023-05-29T05:26:04;8.50;;;5.80;;
7983;SDS011;4037;47.980;10.172;2023-05-29T05:28:31;7.27;;;5.33;;
7983;SDS011;4037;47.980;10.172;2023-05-29T05:30:57;7.87;;;5.27;;
7983;SDS011;4037;47.980;10.172;2023-05-29T05:33:23;6.90;;;5.00;;
7983;SDS011;4037;47.980;10.172;2023-05-29T05:35:49;9.70;;;5.57;;
7983;SDS011;4037;47.980;10.172;2023-05-29T05:38:15;9.80;;;5.20;;
7983;SDS011;4037;47.980;10.172;2023-05-29T05:40:41;8.47;;;5.77;;
7983;SDS011;4037;47.980;10.172;2023-05-29T05:43:09;9.07;;;5.03;;
7983;SDS011;4037;47.980;10.172;2023-05-29T05:45:35;10.03;;;5.60;;
7983;SDS011;4037;47.980;10.172;2023-05-29T05:48:07;8.23;;;5.73;;
7983;SDS011;4037;47.980;10.172;2023-05-29T05:50:33;9.37;;;5.30;;
7983;SDS011;4037;47.980;10.172;2023-05-29T05:52:59;7.07;;;4.87;;
7983;SDS011;4037;47.980;10.172;2023-05-29T05:55:26;8.93;;;5.53;;
7983;SDS011;4037;47.980;10.172;2023-05-29T05:57:53;10.70;;;5.23;;
7983;SDS011;4037;47.980;10.172;2023-05-29T06:00:20;6.17;;;4.43;;
7983;SDS011;4037;47.980;10.172;2023-05-29T06:02:46;7.87;;;5.10;;
7983;SDS011;4037;47.980;10.172;2023-05-29T06:05:12;6.77;;;4.90;;
7983;SDS011;4037;47.980;10.172;2023-05-29T06:07:38;8.07;;;5.40;;
7983;SDS011;4037;47.980;10.172;2023-05-29T06:10:04;9.90;;;5.67;;
7983;SDS011;4037;47.980;10.172;2023-05-29T06:12:30;9.63;;;5.77;;
7983;SDS011;4037;47.980;10.172;2023-05-29T06:14:56;8.73;;;5.63;;
7983;SDS011;4037;47.980;10.172;2023-05-29T06:17:22;8.10;;;5.30;;
7983;SDS011;4037;47.980;10.172;2023-05-29T06:19:49;7.80;;;4.90;;
7983;SDS011;4037;47.980;10.172;2023-05-29T06:22:15;8.37;;;4.60;;
7983;SDS011;4037;47.980;10.172;2023-05-29T06:24:41;7.40;;;4.90;;
7983;SDS011;4037;47.980;10.172;2023-05-29T06:27:07;7.63;;;5.33;;
7983;SDS011;4037;47.980;10.172;2023-05-29T06:29:33;6.60;;;5.43;;
7983;SDS011;4037;47.980;10.172;2023-05-29T06:32:00;7.53;;;5.43;;
7983;SDS011;4037;47.980;10.172;2023-05-29T06:34:26;8.10;;;5.67;;
7983;SDS011;4037;47.980;10.172;2023-05-29T06:36:52;9.17;;;5.13;;
7983;SDS011;4037;47.980;10.172;2023-05-29T06:39:18;7.70;;;5.50;;
7983;SDS011;4037;47.980;10.172;2023-05-29T06:41:45;9.90;;;5.17;;
7983;SDS011;4037;47.980;10.172;2023-05-29T06:44:11;8.13;;;5.80;;
7983;SDS011;4037;47.980;10.172;2023-05-29T06:46:37;7.10;;;5.10;;
7983;SDS011;4037;47.980;10.172;2023-05-29T06:49:03;7.60;;;5.60;;
7983;SDS011;4037;47.980;10.172;2023-05-29T06:51:30;8.33;;;5.43;;
7983;SDS011;4037;47.980;10.172;2023-05-29T06:53:57;12.20;;;5.87;;
7983;SDS011;4037;47.980;10.172;2023-05-29T06:56:23;7.17;;;5.40;;
7983;SDS011;4037;47.980;10.172;2023-05-29T06:58:50;8.33;;;6.03;;
7983;SDS011;4037;47.980;10.172;2023-05-29T07:01:16;7.03;;;4.87;;
7983;SDS011;4037;47.980;10.172;2023-05-29T07:03:43;9.70;;;6.17;;
7983;SDS011;4037;47.980;10.172;2023-05-29T07:06:09;8.93;;;5.37;;
7983;SDS011;4037;47.980;10.172;2023-05-29T07:08:35;8.30;;;5.70;;
7983;SDS011;4037;47.980;10.172;2023-05-29T07:11:01;7.20;;;5.33;;
7983;SDS011;4037;47.980;10.172;2023-05-29T07:13:28;8.63;;;5.70;;
7983;SDS011;4037;47.980;10.172;2023-05-29T07:15:54;7.63;;;5.00;;
7983;SDS011;4037;47.980;10.172;2023-05-29T07:18:20;9.90;;;5.67;;
7983;SDS011;4037;47.980;10.172;2023-05-29T07:20:46;6.70;;;4.87;;
7983;SDS011;4037;47.980;10.172;2023-05-29T07:23:12;8.53;;;5.23;;
7983;SDS011;4037;47.980;10.172;2023-05-29T07:25:38;10.67;;;6.60;;
7983;SDS011;4037;47.980;10.172;2023-05-29T07:28:04;12.00;;;6.37;;
7983;SDS011;4037;47.980;10.172;2023-05-29T07:30:30;9.43;;;5.40;;
7983;SDS011;4037;47.980;10.172;2023-05-29T07:32:56;7.27;;;5.40;;
7983;SDS011;4037;47.980;10.172;2023-05-29T07:35:22;7.33;;;5.10;;
7983;SDS011;4037;47.980;10.172;2023-05-29T07:37:48;7.60;;;5.30;;
7983;SDS011;4037;47.980;10.172;2023-05-29T07:40:16;7.10;;;4.73;;
7983;SDS011;4037;47.980;10.172;2023-05-29T07:42:42;8.43;;;5.30;;
7983;SDS011;4037;47.980;10.172;2023-05-29T07:45:08;8.47;;;5.63;;
7983;SDS011;4037;47.980;10.172;2023-05-29T07:47:36;7.10;;;4.83;;
7983;SDS011;4037;47.980;10.172;2023-05-29T07:50:02;9.03;;;4.93;;
7983;SDS011;4037;47.980;10.172;2023-05-29T07:52:28;7.20;;;5.10;;
7983;SDS011;4037;47.980;10.172;2023-05-29T07:54:54;6.70;;;4.80;;
7983;SDS011;4037;47.980;10.172;2023-05-29T07:57:20;7.63;;;5.13;;
7983;SDS011;4037;47.980;10.172;2023-05-29T07:59:46;8.03;;;4.90;;
7983;SDS011;4037;47.980;10.172;2023-05-29T08:02:14;7.67;;;5.30;;
7983;SDS011;4037;47.980;10.172;2023-05-29T08:04:41;10.40;;;4.83;;
7983;SDS011;4037;47.980;10.172;2023-05-29T08:07:07;9.50;;;5.20;;
7983;SDS011;4037;47.980;10.172;2023-05-29T08:09:33;6.57;;;4.80;;
7983;SDS011;4037;47.980;10.172;2023-05-29T08:11:59;5.70;;;4.67;;
7983;SDS011;4037;47.980;10.172;2023-05-29T08:14:26;7.83;;;4.60;;
7983;SDS011;4037;47.980;10.172;2023-05-29T08:16:52;6.47;;;4.80;;
7983;SDS011;4037;47.980;10.172;2023-05-29T08:19:18;8.50;;;4.63;;
7983;SDS011;4037;47.980;10.172;2023-05-29T08:21:44;6.13;;;5.03;;
7983;SDS011;4037;47.980;10.172;2023-05-29T08:24:10;7.03;;;4.73;;
7983;SDS011;4037;47.980;10.172;2023-05-29T08:26:37;8.97;;;5.43;;
7983;SDS011;4037;47.980;10.172;2023-05-29T08:29:03;6.00;;;4.70;;
7983;SDS011;4037;47.980;10.172;2023-05-29T08:31:29;8.00;;;4.20;;
7983;SDS011;4037;47.980;10.172;2023-05-29T08:33:55;9.20;;;4.87;;
7983;SDS011;4037;47.980;10.172;2023-05-29T08:36:22;6.07;;;4.67;;
7983;SDS011;4037;47.980;10.172;2023-05-29T08:38:48;5.47;;;4.37;;
7983;SDS011;4037;47.980;10.172;2023-05-29T08:41:20;5.33;;;4.03;;
7983;SDS011;4037;47.980;10.172;2023-05-29T08:43:47;8.17;;;4.43;;
7983;SDS011;4037;47.980;10.172;2023-05-29T08:46:15;7.80;;;4.70;;
7983;SDS011;4037;47.980;10.172;2023-05-29T08:48:43;6.63;;;4.60;;
7983;SDS011;4037;47.980;10.172;2023-05-29T08:51:13;6.17;;;4.03;;
7983;SDS011;4037;47.980;10.172;2023-05-29T08:53:39;6.50;;;4.33;;
7983;SDS011;4037;47.980;10.172;2023-05-29T08:56:06;5.43;;;3.80;;
7983;SDS011;4037;47.980;10.172;2023-05-29T08:58:33;6.83;;;4.07;;
7983;SDS011;4037;47.980;10.172;2023-05-29T09:01:00;6.57;;;4.50;;
7983;SDS011;4037;47.980;10.172;2023-05-29T09:03:27;7.87;;;4.33;;
7983;SDS011;4037;47.980;10.172;2023-05-29T09:05:57;5.60;;;3.83;;
7983;SDS011;4037;47.980;10.172;2023-05-29T09:08:24;5.30;;;3.60;;
7983;SDS011;4037;47.980;10.172;2023-05-29T09:10:51;6.37;;;4.37;;
7983;SDS011;4037;47.980;10.172;2023-05-29T09:13:17;5.47;;;4.07;;
7983;SDS011;4037;47.980;10.172;2023-05-29T09:15:43;5.00;;;3.83;;
7983;SDS011;4037;47.980;10.172;2023-05-29T09:18:09;5.57;;;3.90;;
7983;SDS011;4037;47.980;10.172;2023-05-29T09:20:36;5.13;;;4.07;;
7983;SDS011;4037;47.980;10.172;2023-05-29T09:23:07;4.67;;;3.93;;
7983;SDS011;4037;47.980;10.172;2023-05-29T09:25:35;5.80;;;4.07;;
7983;SDS011;4037;47.980;10.172;2023-05-29T09:28:02;5.87;;;3.90;;
7983;SDS011;4037;47.980;10.172;2023-05-29T09:30:38;5.47;;;3.80;;
7983;SDS011;4037;47.980;10.172;2023-05-29T09:33:05;5.40;;;3.70;;
7983;SDS011;4037;47.980;10.172;2023-05-29T09:35:33;5.50;;;3.77;;
7983;SDS011;4037;47.980;10.172;2023-05-29T09:37:59;5.87;;;3.63;;
7983;SDS011;4037;47.980;10.172;2023-05-29T09:40:26;4.67;;;3.57;;
7983;SDS011;4037;47.980;10.172;2023-05-29T09:42:52;6.07;;;3.80;;
7983;SDS011;4037;47.980;10.172;2023-05-29T09:45:18;7.18;;;3.65;;
7983;SDS011;4037;47.980;10.172;2023-05-29T09:47:44;4.78;;;3.13;;
7983;SDS011;4037;47.980;10.172;2023-05-29T09:50:17;5.73;;;4.00;;
7983;SDS011;4037;47.980;10.172;2023-05-29T09:52:45;4.40;;;3.37;;
7983;SDS011;4037;47.980;10.172;2023-05-29T09:55:12;4.37;;;3.30;;
7983;SDS011;4037;47.980;10.172;2023-05-29T09:57:43;5.75;;;3.47;;
7983;SDS011;4037;47.980;10.172;2023-05-29T10:00:10;4.30;;;3.77;;
7983;SDS011;4037;47.980;10.172;2023-05-29T10:02:38;4.57;;;3.63;;
7983;SDS011;4037;47.980;10.172;2023-05-29T10:05:05;4.27;;;3.43;;
7983;SDS011;4037;47.980;10.172;2023-05-29T10:07:33;4.70;;;3.47;;
7983;SDS011;4037;47.980;10.172;2023-05-29T10:10:02;5.93;;;3.60;;
7983;SDS011;4037;47.980;10.172;2023-05-29T10:12:28;4.57;;;3.57;;
7983;SDS011;4037;47.980;10.172;2023-05-29T10:14:56;5.40;;;3.10;;
7983;SDS011;4037;47.980;10.172;2023-05-29T10:17:26;6.90;;;3.37;;
7983;SDS011;4037;47.980;10.172;2023-05-29T10:19:52;4.83;;;3.30;;
7983;SDS011;4037;47.980;10.172;2023-05-29T10:22:19;6.00;;;4.10;;
7983;SDS011;4037;47.980;10.172;2023-05-29T10:24:46;8.47;;;3.93;;
7983;SDS011;4037;47.980;10.172;2023-05-29T10:27:14;7.97;;;5.07;;
7983;SDS011;4037;47.980;10.172;2023-05-29T10:29:47;7.47;;;4.00;;
7983;SDS011;4037;47.980;10.172;2023-05-29T10:35:06;5.20;;;3.67;;
7983;SDS011;4037;47.980;10.172;2023-05-29T10:37:52;5.57;;;3.30;;
7983;SDS011;4037;47.980;10.172;2023-05-29T10:40:23;4.40;;;2.83;;
7983;SDS011;4037;47.980;10.172;2023-05-29T10:42:50;6.67;;;3.60;;
7983;SDS011;4037;47.980;10.172;2023-05-29T10:53:06;4.30;;;3.13;;
7983;SDS011;4037;47.980;10.172;2023-05-29T10:55:36;5.43;;;4.00;;
7983;SDS011;4037;47.980;10.172;2023-05-29T10:58:08;3.78;;;2.95;;
7983;SDS011;4037;47.980;10.172;2023-05-29T11:00:39;5.00;;;3.50;;
7983;SDS011;4037;47.980;10.172;2023-05-29T11:03:08;5.55;;;3.25;;
7983;SDS011;4037;47.980;10.172;2023-05-29T11:05:35;5.80;;;3.58;;
7983;SDS011;4037;47.980;10.172;2023-05-29T11:08:28;5.20;;;3.07;;
7983;SDS011;4037;47.980;10.172;2023-05-29T11:10:55;5.47;;;3.15;;
7983;SDS011;4037;47.980;10.172;2023-05-29T11:13:23;5.25;;;3.17;;
7983;SDS011;4037;47.980;10.172;2023-05-29T11:16:36;4.25;;;2.90;;
7983;SDS011;4037;47.980;10.172;2023-05-29T11:18:40;5.88;;;3.60;;
7983;SDS011;4037;47.980;10.172;2023-05-29T11:21:13;4.38;;;3.05;;
7983;SDS011;4037;47.980;10.172;2023-05-29T11:23:41;5.40;;;3.45;;
7983;SDS011;4037;47.980;10.172;2023-05-29T11:26:08;3.95;;;3.28;;
7983;SDS011;4037;47.980;10.172;2023-05-29T11:28:35;5.55;;;3.03;;
7983;SDS011;4037;47.980;10.172;2023-05-29T11:31:02;4.75;;;3.03;;
7983;SDS011;4037;47.980;10.172;2023-05-29T11:33:34;3.57;;;3.20;;
7983;SDS011;4037;47.980;10.172;2023-05-29T11:36:01;7.07;;;3.73;;
7983;SDS011;4037;47.980;10.172;2023-05-29T11:38:27;5.10;;;3.50;;
7983;SDS011;4037;47.980;10.172;2023-05-29T11:40:54;7.55;;;3.47;;
7983;SDS011;4037;47.980;10.172;2023-05-29T11:43:20;4.15;;;3.00;;
7983;SDS011;4037;47.980;10.172;2023-05-29T11:45:46;3.67;;;2.65;;
7983;SDS011;4037;47.980;10.172;2023-05-29T11:48:12;5.32;;;3.35;;
7983;SDS011;4037;47.980;10.172;2023-05-29T11:50:38;5.55;;;4.15;;
7983;SDS011;4037;47.980;10.172;2023-05-29T11:53:05;4.38;;;2.97;;
7983;SDS011;4037;47.980;10.172;2023-05-29T11:55:32;4.28;;;2.97;;
7983;SDS011;4037;47.980;10.172;2023-05-29T11:57:59;3.72;;;2.95;;
7983;SDS011;4037;47.980;10.172;2023-05-29T12:00:26;5.47;;;3.53;;
7983;SDS011;4037;47.980;10.172;2023-05-29T12:02:57;4.10;;;3.03;;
7983;SDS011;4037;47.980;10.172;2023-05-29T12:05:23;4.40;;;3.05;;
7983;SDS011;4037;47.980;10.172;2023-05-29T12:07:55;3.67;;;3.15;;
7983;SDS011;4037;47.980;10.172;2023-05-29T12:10:22;3.58;;;3.00;;
7983;SDS011;4037;47.980;10.172;2023-05-29T12:12:51;4.35;;;3.50;;
7983;SDS011;4037;47.980;10.172;2023-05-29T12:15:17;6.05;;;3.28;;
7983;SDS011;4037;47.980;10.172;2023-05-29T12:17:44;3.75;;;3.15;;
7983;SDS011;4037;47.980;10.172;2023-05-29T12:20:11;3.45;;;2.55;;
7983;SDS011;4037;47.980;10.172;2023-05-29T12:22:39;5.43;;;3.22;;
7983;SDS011;4037;47.980;10.172;2023-05-29T12:25:12;5.10;;;3.70;;
7983;SDS011;4037;47.980;10.172;2023-05-29T12:27:39;5.28;;;3.33;;
7983;SDS011;4037;47.980;10.172;2023-05-29T12:30:09;4.25;;;2.70;;
7983;SDS011;4037;47.980;10.172;2023-05-29T12:32:36;5.82;;;3.80;;
7983;SDS011;4037;47.980;10.172;2023-05-29T12:37:57;5.18;;;3.28;;
7983;SDS011;4037;47.980;10.172;2023-05-29T12:40:24;3.88;;;2.90;;
7983;SDS011;4037;47.980;10.172;2023-05-29T12:42:54;4.18;;;3.22;;
7983;SDS011;4037;47.980;10.172;2023-05-29T12:45:21;6.00;;;2.92;;
7983;SDS011;4037;47.980;10.172;2023-05-29T12:47:55;3.88;;;3.42;;
7983;SDS011;4037;47.980;10.172;2023-05-29T12:52:54;4.32;;;3.47;;
7983;SDS011;4037;47.980;10.172;2023-05-29T12:55:20;4.20;;;3.08;;
7983;SDS011;4037;47.980;10.172;2023-05-29T12:57:46;5.18;;;3.25;;
7983;SDS011;4037;47.980;10.172;2023-05-29T13:00:13;4.10;;;2.70;;
7983;SDS011;4037;47.980;10.172;2023-05-29T13:02:39;3.42;;;2.75;;
7983;SDS011;4037;47.980;10.172;2023-05-29T13:05:06;4.32;;;3.10;;
7983;SDS011;4037;47.980;10.172;2023-05-29T13:07:32;4.90;;;2.90;;
7983;SDS011;4037;47.980;10.172;2023-05-29T13:09:59;3.88;;;2.38;;
7983;SDS011;4037;47.980;10.172;2023-05-29T13:12:26;3.70;;;2.83;;
7983;SDS011;4037;47.980;10.172;2023-05-29T13:14:52;3.53;;;2.67;;
7983;SDS011;4037;47.980;10.172;2023-05-29T13:17:21;3.53;;;2.70;;
7983;SDS011;4037;47.980;10.172;2023-05-29T13:19:47;3.80;;;3.08;;
7983;SDS011;4037;47.980;10.172;2023-05-29T13:22:13;6.40;;;2.83;;
7983;SDS011;4037;47.980;10.172;2023-05-29T13:24:39;3.75;;;3.00;;
7983;SDS011;4037;47.980;10.172;2023-05-29T13:27:05;3.92;;;2.63;;
7983;SDS011;4037;47.980;10.172;2023-05-29T13:29:31;3.83;;;2.85;;
7983;SDS011;4037;47.980;10.172;2023-05-29T13:31:57;2.90;;;2.22;;
7983;SDS011;4037;47.980;10.172;2023-05-29T13:34:23;4.72;;;3.00;;
7983;SDS011;4037;47.980;10.172;2023-05-29T13:36:56;3.45;;;2.53;;
7983;SDS011;4037;47.980;10.172;2023-05-29T13:39:22;2.75;;;2.10;;
7983;SDS011;4037;47.980;10.172;2023-05-29T13:41:49;3.38;;;2.67;;
7983;SDS011;4037;47.980;10.172;2023-05-29T13:44:15;4.18;;;2.67;;
7983;SDS011;4037;47.980;10.172;2023-05-29T13:46:41;3.67;;;2.33;;
7983;SDS011;4037;47.980;10.172;2023-05-29T13:49:07;4.35;;;2.53;;
7983;SDS011;4037;47.980;10.172;2023-05-29T13:51:33;4.05;;;2.63;;
7983;SDS011;4037;47.980;10.172;2023-05-29T13:54:01;3.42;;;2.42;;
7983;SDS011;4037;47.980;10.172;2023-05-29T13:56:28;7.38;;;2.90;;
7983;SDS011;4037;47.980;10.172;2023-05-29T13:58:54;3.95;;;2.67;;
7983;SDS011;4037;47.980;10.172;2023-05-29T14:01:20;5.10;;;2.55;;
7983;SDS011;4037;47.980;10.172;2023-05-29T14:03:49;3.70;;;2.45;;
7983;SDS011;4037;47.980;10.172;2023-05-29T14:06:15;5.95;;;2.70;;
7983;SDS011;4037;47.980;10.172;2023-05-29T14:08:41;4.55;;;2.78;;
7983;SDS011;4037;47.980;10.172;2023-05-29T14:11:07;3.20;;;2.38;;
7983;SDS011;4037;47.980;10.172;2023-05-29T14:13:33;4.53;;;2.97;;
7983;SDS011;4037;47.980;10.172;2023-05-29T14:15:59;3.67;;;2.38;;
7983;SDS011;4037;47.980;10.172;2023-05-29T14:18:25;3.08;;;2.38;;
7983;SDS011;4037;47.980;10.172;2023-05-29T14:20:51;3.70;;;2.50;;
7983;SDS011;4037;47.980;10.172;2023-05-29T14:23:17;3.90;;;2.80;;
7983;SDS011;4037;47.980;10.172;2023-05-29T14:25:43;3.30;;;2.10;;
7983;SDS011;4037;47.980;10.172;2023-05-29T14:28:09;3.13;;;2.78;;
7983;SDS011;4037;47.980;10.172;2023-05-29T14:30:39;3.17;;;2.28;;
7983;SDS011;4037;47.980;10.172;2023-05-29T14:33:05;3.45;;;2.80;;
7983;SDS011;4037;47.980;10.172;2023-05-29T14:35:31;3.47;;;2.33;;
7983;SDS011;4037;47.980;10.172;2023-05-29T14:37:57;3.00;;;2.00;;
7983;SDS011;4037;47.980;10.172;2023-05-29T14:40:23;2.67;;;1.90;;
7983;SDS011;4037;47.980;10.172;2023-05-29T14:42:49;3.13;;;2.50;;
7983;SDS011;4037;47.980;10.172;2023-05-29T14:45:16;3.92;;;2.55;;
7983;SDS011;4037;47.980;10.172;2023-05-29T14:47:42;3.05;;;2.63;;
7983;SDS011;4037;47.980;10.172;2023-05-29T14:50:08;3.25;;;2.58;;
7983;SDS011;4037;47.980;10.172;2023-05-29T14:52:34;4.30;;;2.92;;
7983;SDS011;4037;47.980;10.172;2023-05-29T14:55:03;5.43;;;2.88;;
7983;SDS011;4037;47.980;10.172;2023-05-29T14:57:30;5.05;;;2.65;;
7983;SDS011;4037;47.980;10.172;2023-05-29T14:59:58;4.13;;;2.78;;
7983;SDS011;4037;47.980;10.172;2023-05-29T15:02:24;5.88;;;2.70;;
7983;SDS011;4037;47.980;10.172;2023-05-29T15:04:50;3.17;;;2.88;;
7983;SDS011;4037;47.980;10.172;2023-05-29T15:07:16;3.97;;;2.70;;
7983;SDS011;4037;47.980;10.172;2023-05-29T15:09:42;3.50;;;2.45;;
7983;SDS011;4037;47.980;10.172;2023-05-29T15:12:08;3.72;;;2.67;;
7983;SDS011;4037;47.980;10.172;2023-05-29T15:14:35;4.10;;;2.95;;
7983;SDS011;4037;47.980;10.172;2023-05-29T15:17:02;3.30;;;3.00;;
7983;SDS011;4037;47.980;10.172;2023-05-29T15:19:29;4.03;;;2.70;;
7983;SDS011;4037;47.980;10.172;2023-05-29T15:21:55;3.53;;;2.75;;